Time,TemperatureF,DewpointF,PressureIn,WindDirection,WindDirectionDegrees,WindSpeedMPH,WindSpeedGustMPH,Humidity,HourlyPrecipIn,Conditions,Clouds,dailyrainin,SoftwareType,DateUTC
2013-02-10 00:02:00,17.0,16.0,-100.00,WNW,285,12.0,14.0,96,0.00,,,-99.99,,2013-02-10 00:02:00,
2013-02-10 00:11:00,17.0,16.0,-100.00,WNW,287,12.0,14.0,96,0.00,,,-99.99,,2013-02-10 00:11:00,
2013-02-10 00:21:00,17.0,16.0,-100.00,WNW,285,11.0,13.0,96,0.00,,,-99.99,,2013-02-10 00:21:00,
2013-02-10 00:32:00,17.0,16.0,-100.00,WNW,285,11.0,13.0,96,0.00,,,-99.99,,2013-02-10 00:32:00,
2013-02-10 00:41:00,17.0,16.0,-100.00,WNW,285,12.0,16.0,96,0.00,,,-99.99,,2013-02-10 00:41:00,
2013-02-10 00:51:00,17.0,16.0,-100.00,WNW,284,12.0,15.0,96,0.01,,,-99.99,,2013-02-10 00:51:00,
2013-02-10 01:01:00,17.0,16.0,-100.00,WNW,282,14.0,17.0,96,0.01,,,-99.99,,2013-02-10 01:01:00,
2013-02-10 01:12:00,17.0,16.0,-100.00,West,280,16.0,19.0,95,0.01,,,-99.99,,2013-02-10 01:12:00,
2013-02-10 01:21:00,17.0,16.0,-100.00,West,277,14.0,17.0,95,0.00,,,-99.99,,2013-02-10 01:21:00,
2013-02-10 01:32:00,17.0,16.0,-100.00,West,277,14.0,16.0,95,0.00,,,-99.99,,2013-02-10 01:32:00,
2013-02-10 01:42:00,17.0,16.0,-100.00,West,275,14.0,16.0,95,0.00,,,-99.99,,2013-02-10 01:42:00,
2013-02-10 01:51:00,17.0,16.0,-100.00,West,277,14.0,17.0,95,0.00,,,-99.99,,2013-02-10 01:51:00,
2013-02-10 02:01:00,17.0,16.0,-100.00,West,278,14.0,17.0,95,0.01,,,-99.99,,2013-02-10 02:01:00,
2013-02-10 02:11:00,17.0,16.0,-100.00,West,278,14.0,17.0,95,0.04,,,-99.99,,2013-02-10 02:11:00,
2013-02-10 02:22:00,17.0,15.0,-100.00,West,275,14.0,16.0,95,0.01,,,-99.99,,2013-02-10 02:22:00,
2013-02-10 02:32:00,17.0,15.0,-100.00,West,275,13.0,16.0,95,0.01,,,-99.99,,2013-02-10 02:32:00,
2013-02-10 02:42:00,17.0,15.0,-100.00,West,277,14.0,17.0,95,0.00,,,-99.99,,2013-02-10 02:42:00,
2013-02-10 02:52:00,17.0,15.0,-100.00,West,277,14.0,18.0,95,0.01,,,-99.99,,2013-02-10 02:52:00,
2013-02-10 03:01:00,17.0,16.0,-100.00,West,277,16.0,20.0,95,0.01,,,-99.99,,2013-02-10 03:01:00,
2013-02-10 03:11:00,17.0,16.0,-100.00,West,280,16.0,20.0,95,0.03,,,-99.99,,2013-02-10 03:11:00,
2013-02-10 03:21:00,17.0,15.0,-100.00,West,277,16.0,20.0,95,0.01,,,-99.99,,2013-02-10 03:21:00,
2013-02-10 03:32:00,17.0,15.0,-100.00,West,277,18.0,21.0,95,0.01,,,-99.99,,2013-02-10 03:32:00,
2013-02-10 03:41:00,16.0,15.0,-100.00,West,274,19.0,24.0,95,0.01,,,-99.99,,2013-02-10 03:41:00,
2013-02-10 03:51:00,17.0,15.0,-100.00,West,274,19.0,23.0,94,0.00,,,-99.99,,2013-02-10 03:51:00,
2013-02-10 04:01:00,16.0,15.0,-100.00,West,274,20.0,24.0,94,0.00,,,-99.99,,2013-02-10 04:01:00,
2013-02-10 04:11:00,16.0,15.0,-100.00,West,272,20.0,24.0,94,0.00,,,-99.99,,2013-02-10 04:11:00,
2013-02-10 04:21:00,17.0,15.0,-100.00,West,274,19.0,23.0,93,0.00,,,-99.99,,2013-02-10 04:21:00,
2013-02-10 04:32:00,17.0,15.0,-100.00,West,277,19.0,22.0,93,0.01,,,-99.99,,2013-02-10 04:32:00,
2013-02-10 04:41:00,17.0,15.0,-100.00,West,275,19.0,22.0,93,0.06,,,-99.99,,2013-02-10 04:41:00,
2013-02-10 04:51:00,17.0,15.0,-100.00,West,272,18.0,21.0,93,0.06,,,-99.99,,2013-02-10 04:51:00,
2013-02-10 05:01:00,17.0,15.0,-100.00,West,272,19.0,24.0,94,0.08,,,-99.99,,2013-02-10 05:01:00,
2013-02-10 05:11:00,17.0,15.0,-100.00,West,274,20.0,24.0,93,0.04,,,-99.99,,2013-02-10 05:11:00,
2013-02-10 05:22:00,17.0,15.0,-100.00,West,274,18.0,22.0,93,0.01,,,-99.99,,2013-02-10 05:22:00,
2013-02-10 05:31:00,17.0,15.0,-100.00,West,274,18.0,22.0,94,0.01,,,-99.99,,2013-02-10 05:31:00,
2013-02-10 05:41:00,17.0,15.0,-100.00,West,275,18.0,22.0,94,0.01,,,-99.99,,2013-02-10 05:41:00,
2013-02-10 05:52:00,17.0,15.0,-100.00,West,274,17.0,21.0,94,0.01,,,-99.99,,2013-02-10 05:52:00,
2013-02-10 06:01:00,17.0,15.0,-100.00,West,274,17.0,22.0,94,0.00,,,-99.99,,2013-02-10 06:01:00,
2013-02-10 06:11:00,17.0,15.0,-100.00,West,275,17.0,22.0,94,0.00,,,-99.99,,2013-02-10 06:11:00,
2013-02-10 06:21:00,16.0,15.0,-100.00,West,274,16.0,20.0,94,0.00,,,-99.99,,2013-02-10 06:21:00,
2013-02-10 06:32:00,16.0,15.0,-100.00,West,272,18.0,22.0,94,0.01,,,-99.99,,2013-02-10 06:32:00,
2013-02-10 06:42:00,16.0,15.0,-100.00,West,274,17.0,20.0,94,0.03,,,-99.99,,2013-02-10 06:42:00,
2013-02-10 06:51:00,16.0,15.0,-100.00,West,277,18.0,23.0,94,0.01,,,-99.99,,2013-02-10 06:51:00,
2013-02-10 07:01:00,16.0,15.0,-100.00,West,271,20.0,24.0,94,0.00,,,-99.99,,2013-02-10 07:01:00,
2013-02-10 07:11:00,16.0,15.0,-100.00,West,271,19.0,22.0,94,0.00,,,-99.99,,2013-02-10 07:11:00,
2013-02-10 07:21:00,16.0,15.0,-100.00,West,277,19.0,23.0,93,0.03,,,-99.99,,2013-02-10 07:21:00,
2013-02-10 07:31:00,16.0,14.0,-100.00,West,278,19.0,24.0,94,0.01,,,-99.99,,2013-02-10 07:31:00,
2013-02-10 07:41:00,16.0,14.0,-100.00,West,275,19.0,24.0,94,0.01,,,-99.99,,2013-02-10 07:41:00,
2013-02-10 07:51:00,16.0,14.0,-100.00,West,275,18.0,23.0,94,0.01,,,-99.99,,2013-02-10 07:51:00,
2013-02-10 08:01:00,16.0,14.0,-100.00,West,277,17.0,21.0,94,0.03,,,-99.99,,2013-02-10 08:01:00,
2013-02-10 08:11:00,16.0,14.0,-100.00,West,275,17.0,21.0,94,0.01,,,-99.99,,2013-02-10 08:11:00,
2013-02-10 08:21:00,15.0,14.0,-100.00,West,274,17.0,21.0,94,0.01,,,-99.99,,2013-02-10 08:21:00,
2013-02-10 08:32:00,16.0,14.0,-100.00,West,268,18.0,24.0,93,0.00,,,-99.99,,2013-02-10 08:32:00,
2013-02-10 08:43:00,16.0,14.0,-100.00,West,267,19.0,24.0,93,0.01,,,-99.99,,2013-02-10 08:43:00,
2013-02-10 08:52:00,16.0,14.0,-100.00,West,271,20.0,25.0,94,0.00,,,-99.99,,2013-02-10 08:52:00,
2013-02-10 09:02:00,16.0,14.0,-100.00,West,272,20.0,23.0,94,0.01,,,-99.99,,2013-02-10 09:02:00,
2013-02-10 09:11:00,15.0,14.0,-100.00,West,274,19.0,23.0,94,0.01,,,-99.99,,2013-02-10 09:11:00,
2013-02-10 09:21:00,15.0,14.0,-100.00,West,271,20.0,24.0,94,0.00,,,-99.99,,2013-02-10 09:21:00,
2013-02-10 09:31:00,15.0,14.0,-100.00,West,271,21.0,26.0,94,0.00,,,-99.99,,2013-02-10 09:31:00,
2013-02-10 09:41:00,15.0,14.0,-100.00,West,272,19.0,23.0,94,0.01,,,-99.99,,2013-02-10 09:41:00,
2013-02-10 09:51:00,15.0,14.0,-100.00,West,275,19.0,24.0,94,0.01,,,-99.99,,2013-02-10 09:51:00,
2013-02-10 10:01:00,15.0,14.0,-100.00,West,275,19.0,22.0,94,0.01,,,-99.99,,2013-02-10 10:01:00,
2013-02-10 10:11:00,15.0,14.0,-100.00,West,274,19.0,24.0,93,0.01,,,-99.99,,2013-02-10 10:11:00,
2013-02-10 10:21:00,16.0,14.0,-100.00,West,271,21.0,25.0,93,0.01,,,-99.99,,2013-02-10 10:21:00,
2013-02-10 10:31:00,15.0,14.0,-100.00,West,270,20.0,25.0,94,0.01,,,-99.99,,2013-02-10 10:31:00,
2013-02-10 10:41:00,15.0,14.0,-100.00,West,272,19.0,22.0,94,0.01,,,-99.99,,2013-02-10 10:41:00,
2013-02-10 10:51:00,15.0,14.0,-100.00,West,271,18.0,22.0,94,0.01,,,-99.99,,2013-02-10 10:51:00,
2013-02-10 11:01:00,15.0,14.0,-100.00,West,271,19.0,24.0,93,0.00,,,-99.99,,2013-02-10 11:01:00,
2013-02-10 11:11:00,15.0,14.0,-100.00,West,272,20.0,24.0,93,0.01,,,-99.99,,2013-02-10 11:11:00,
2013-02-10 11:21:00,15.0,14.0,-100.00,West,274,21.0,24.0,92,0.01,,,-99.99,,2013-02-10 11:21:00,
2013-02-10 11:32:00,15.0,14.0,-100.00,West,272,21.0,26.0,92,0.00,,,-99.99,,2013-02-10 11:32:00,
2013-02-10 11:42:00,15.0,13.0,-100.00,West,274,24.0,29.0,93,0.00,,,-99.99,,2013-02-10 11:42:00,
2013-02-10 11:52:00,15.0,13.0,-100.00,West,272,22.0,28.0,93,0.00,,,-99.99,,2013-02-10 11:52:00,
2013-02-10 12:01:00,15.0,13.0,-100.00,West,272,23.0,27.0,93,0.00,,,-99.99,,2013-02-10 12:01:00,
2013-02-10 12:12:00,15.0,13.0,-100.00,West,277,24.0,28.0,93,0.00,,,-99.99,,2013-02-10 12:12:00,
2013-02-10 12:21:00,15.0,13.0,-100.00,West,278,24.0,30.0,93,0.00,,,-99.99,,2013-02-10 12:21:00,
2013-02-10 12:32:00,14.0,13.0,-100.00,West,278,22.0,27.0,93,0.00,,,-99.99,,2013-02-10 12:32:00,
2013-02-10 12:41:00,15.0,13.0,-100.00,West,277,21.0,25.0,93,0.00,,,-99.99,,2013-02-10 12:41:00,
2013-02-10 12:52:00,15.0,13.0,-100.00,West,277,21.0,24.0,93,0.00,,,-99.99,,2013-02-10 12:52:00,
2013-02-10 13:02:00,14.0,13.0,-100.00,West,274,20.0,24.0,93,0.00,,,-99.99,,2013-02-10 13:02:00,
2013-02-10 13:11:00,14.0,13.0,-100.00,West,275,20.0,24.0,93,0.00,,,-99.99,,2013-02-10 13:11:00,
2013-02-10 13:21:00,14.0,13.0,-100.00,West,278,20.0,24.0,93,0.00,,,-99.99,,2013-02-10 13:21:00,
2013-02-10 13:31:00,14.0,12.0,-100.00,West,278,20.0,24.0,93,0.00,,,-99.99,,2013-02-10 13:31:00,
2013-02-10 13:41:00,14.0,12.0,-100.00,West,280,19.0,22.0,93,0.00,,,-99.99,,2013-02-10 13:41:00,
2013-02-10 13:51:00,14.0,12.0,-100.00,West,280,19.0,23.0,93,0.00,,,-99.99,,2013-02-10 13:51:00,
2013-02-10 14:02:00,14.0,12.0,-100.00,West,280,21.0,24.0,93,0.00,,,-99.99,,2013-02-10 14:02:00,
2013-02-10 14:11:00,14.0,12.0,-100.00,West,278,21.0,25.0,93,0.00,,,-99.99,,2013-02-10 14:11:00,
2013-02-10 14:21:00,14.0,12.0,-100.00,West,281,19.0,22.0,93,0.00,,,-99.99,,2013-02-10 14:21:00,
2013-02-10 14:32:00,14.0,12.0,-100.00,West,275,18.0,22.0,92,0.00,,,-99.99,,2013-02-10 14:32:00,
2013-02-10 14:41:00,14.0,12.0,-100.00,West,272,17.0,24.0,92,0.00,,,-99.99,,2013-02-10 14:41:00,
2013-02-10 14:52:00,14.0,12.0,-100.00,West,274,17.0,22.0,92,0.00,,,-99.99,,2013-02-10 14:52:00,
2013-02-10 15:01:00,14.0,12.0,-100.00,West,265,20.0,24.0,91,0.00,,,-99.99,,2013-02-10 15:01:00,
2013-02-10 15:11:00,14.0,12.0,-100.00,West,263,21.0,25.0,91,0.00,,,-99.99,,2013-02-10 15:11:00,
2013-02-10 15:21:00,14.0,12.0,-100.00,West,268,19.0,24.0,90,0.00,,,-99.99,,2013-02-10 15:21:00,
2013-02-10 15:32:00,14.0,11.0,-100.00,West,263,21.0,24.0,89,0.00,,,-99.99,,2013-02-10 15:32:00,
2013-02-10 15:42:00,14.0,12.0,-100.00,West,264,21.0,24.0,90,0.00,,,-99.99,,2013-02-10 15:42:00,
2013-02-10 15:51:00,14.0,11.0,-100.00,West,268,19.0,24.0,88,0.00,,,-99.99,,2013-02-10 15:51:00,
2013-02-10 16:02:00,15.0,11.0,-100.00,West,270,21.0,24.0,87,0.00,,,-99.99,,2013-02-10 16:02:00,
2013-02-10 16:11:00,15.0,12.0,-100.00,West,277,21.0,26.0,88,0.00,,,-99.99,,2013-02-10 16:11:00,
2013-02-10 16:21:00,15.0,12.0,-100.00,West,278,19.0,23.0,88,0.00,,,-99.99,,2013-02-10 16:21:00,
2013-02-10 16:32:00,15.0,12.0,-100.00,West,277,22.0,27.0,90,0.01,,,-99.99,,2013-02-10 16:32:00,
2013-02-10 16:42:00,14.0,12.0,-100.00,West,277,20.0,26.0,90,0.03,,,-99.99,,2013-02-10 16:42:00,
2013-02-10 16:52:00,14.0,12.0,-100.00,West,280,21.0,26.0,90,0.03,,,-99.99,,2013-02-10 16:52:00,
2013-02-10 17:01:00,14.0,11.0,-100.00,West,275,19.0,24.0,88,0.00,,,-99.99,,2013-02-10 17:01:00,
2013-02-10 17:11:00,14.0,11.0,-100.00,West,278,20.0,26.0,86,0.00,,,-99.99,,2013-02-10 17:11:00,
2013-02-10 17:21:00,15.0,11.0,-100.00,West,277,19.0,23.0,84,0.00,,,-99.99,,2013-02-10 17:21:00,
2013-02-10 17:32:00,15.0,11.0,-100.00,West,280,17.0,21.0,82,0.00,,,-99.99,,2013-02-10 17:32:00,
2013-02-10 17:42:00,15.0,10.0,-100.00,West,281,17.0,22.0,82,0.00,,,-99.99,,2013-02-10 17:42:00,
2013-02-10 17:52:00,15.0,12.0,-100.00,WNW,288,16.0,19.0,87,0.01,,,-99.99,,2013-02-10 17:52:00,
2013-02-10 18:02:00,15.0,12.0,-100.00,WNW,289,17.0,21.0,86,0.01,,,-99.99,,2013-02-10 18:02:00,
2013-02-10 18:11:00,15.0,11.0,-100.00,WNW,292,18.0,22.0,84,0.00,,,-99.99,,2013-02-10 18:11:00,
2013-02-10 18:21:00,15.0,11.0,-100.00,WNW,288,16.0,21.0,83,0.01,,,-99.99,,2013-02-10 18:21:00,
2013-02-10 18:32:00,15.0,12.0,-100.00,WNW,287,15.0,19.0,89,0.01,,,-99.99,,2013-02-10 18:32:00,
2013-02-10 18:42:00,15.0,12.0,-100.00,WNW,288,16.0,19.0,91,0.01,,,-99.99,,2013-02-10 18:42:00,
2013-02-10 18:52:00,15.0,12.0,-100.00,WNW,291,16.0,21.0,90,0.01,,,-99.99,,2013-02-10 18:52:00,
2013-02-10 19:01:00,14.0,12.0,-100.00,WNW,291,16.0,20.0,91,0.04,,,-99.99,,2013-02-10 19:01:00,
2013-02-10 19:11:00,14.0,12.0,-100.00,WNW,292,16.0,21.0,91,0.03,,,-99.99,,2013-02-10 19:11:00,
2013-02-10 19:21:00,14.0,11.0,-100.00,WNW,294,18.0,24.0,90,0.00,,,-99.99,,2013-02-10 19:21:00,
2013-02-10 19:32:00,14.0,11.0,-100.00,WNW,296,20.0,24.0,87,0.00,,,-99.99,,2013-02-10 19:32:00,
2013-02-10 19:42:00,14.0,11.0,-100.00,WNW,295,18.0,23.0,87,0.01,,,-99.99,,2013-02-10 19:42:00,
2013-02-10 19:52:00,14.0,11.0,-100.00,WNW,298,19.0,22.0,87,0.00,,,-99.99,,2013-02-10 19:52:00,
2013-02-10 20:02:00,14.0,10.0,-100.00,WNW,292,17.0,21.0,85,0.00,,,-99.99,,2013-02-10 20:02:00,
2013-02-10 20:11:00,14.0,10.0,-100.00,WNW,295,17.0,21.0,85,0.00,,,-99.99,,2013-02-10 20:11:00,
2013-02-10 20:21:00,14.0,10.0,-100.00,WNW,299,19.0,22.0,84,0.00,,,-99.99,,2013-02-10 20:21:00,
2013-02-10 20:32:00,14.0,10.0,-100.00,WNW,296,19.0,22.0,83,0.00,,,-99.99,,2013-02-10 20:32:00,
2013-02-10 20:42:00,14.0,9.0,-100.00,WNW,299,18.0,23.0,81,0.00,,,-99.99,,2013-02-10 20:42:00,
2013-02-10 20:52:00,14.0,10.0,-100.00,WNW,301,17.0,21.0,84,0.00,,,-99.99,,2013-02-10 20:52:00,
2013-02-10 21:02:00,13.0,10.0,-100.00,WNW,302,17.0,21.0,84,0.00,,,-99.99,,2013-02-10 21:02:00,
2013-02-10 21:11:00,13.0,9.0,-100.00,NW,306,17.0,20.0,85,0.00,,,-99.99,,2013-02-10 21:11:00,
2013-02-10 21:21:00,13.0,9.0,-100.00,NW,311,16.0,19.0,83,0.00,,,-99.99,,2013-02-10 21:21:00,
2013-02-10 21:32:00,13.0,10.0,-100.00,NW,316,14.0,17.0,85,0.00,,,-99.99,,2013-02-10 21:32:00,
2013-02-10 21:42:00,13.0,10.0,-100.00,NW,313,13.0,16.0,86,0.00,,,-99.99,,2013-02-10 21:42:00,
2013-02-10 21:51:00,13.0,10.0,-100.00,NW,311,14.0,17.0,87,0.00,,,-99.99,,2013-02-10 21:51:00,
2013-02-10 22:02:00,13.0,11.0,-100.00,NW,311,14.0,17.0,89,0.00,,,-99.99,,2013-02-10 22:02:00,
2013-02-10 22:11:00,13.0,11.0,-100.00,NW,308,15.0,18.0,89,0.00,,,-99.99,,2013-02-10 22:11:00,
2013-02-10 22:21:00,13.0,10.0,-100.00,NW,311,16.0,19.0,89,0.00,,,-99.99,,2013-02-10 22:21:00,
2013-02-10 22:32:00,12.0,9.0,-100.00,NW,313,15.0,17.0,88,0.00,,,-99.99,,2013-02-10 22:32:00,
2013-02-10 22:42:00,12.0,9.0,-100.00,NW,312,14.0,17.0,89,0.00,,,-99.99,,2013-02-10 22:42:00,
2013-02-10 22:52:00,12.0,10.0,-100.00,NW,311,15.0,17.0,90,0.00,,,-99.99,,2013-02-10 22:52:00,
2013-02-10 23:02:00,12.0,10.0,-100.00,NW,311,16.0,19.0,90,0.00,,,-99.99,,2013-02-10 23:02:00,
2013-02-10 23:11:00,12.0,10.0,-100.00,NW,311,16.0,17.0,90,0.00,,,-99.99,,2013-02-10 23:11:00,
2013-02-10 23:22:00,12.0,10.0,-100.00,NW,312,13.0,16.0,91,0.00,,,-99.99,,2013-02-10 23:22:00,
2013-02-10 23:32:00,12.0,10.0,-100.00,NW,313,14.0,17.0,91,0.00,,,-99.99,,2013-02-10 23:32:00,
2013-02-10 23:42:00,12.0,10.0,-100.00,NW,308,14.0,17.0,92,0.00,,,-99.99,,2013-02-10 23:42:00,
2013-02-10 23:52:00,12.0,10.0,-100.00,WNW,302,12.0,15.0,92,0.00,,,-99.99,,2013-02-10 23:52:00,